Time;durP1;ratioP1;P1;durP2;ratioP2;P2;SDS_P1;SDS_P2;PMS_P1;PMS_P2;Temp;Humidity;BMP_temperature;BMP_pressure;BME280_temperature;BME280_humidity;BME280_pressure;Samples;Min_cycle;Max_cycle;Signal;HPM_P1;HPM_P2
2022/09/10 00:01:36;;;;;;;;;;;;;;;17.12;62.10;95363.41;5089704;28;20011;-65
2022/09/10 00:04:02;;;;;;;;;;;;;;;17.03;62.44;95360.06;5089015;28;20115;-66
2022/09/10 00:06:28;;;;;;;;;;;;;;;16.96;62.26;95356.41;5088305;28;20009;-65
2022/09/10 00:08:57;;;;;;;;;;;;;;;16.88;62.53;95355.38;5088347;28;20009;-65
2022/09/10 00:11:29;;;;;;;;;;;;;;;16.79;62.81;95362.81;5089277;28;20040;-65
2022/09/10 00:13:56;;;;;;;;;;;;;;;16.73;63.09;95356.84;5089813;28;20017;-66
2022/09/10 00:16:21;;;;;;;;;;;;;;;16.71;62.69;95360.97;5131724;22;20056;-63
2022/09/10 00:18:50;;;;;;;;;;;;;;;16.64;62.96;95358.88;5095423;28;20429;-63
2022/09/10 00:21:17;;;;;;;;;;;;;;;16.63;62.90;95365.34;5108106;28;20055;-63
2022/09/10 00:23:44;;;;;;;;;;;;;;;16.61;62.89;95371.06;5074426;28;20020;-63
2022/09/10 00:26:15;;;;;;;;;;;;;;;16.58;63.01;95371.75;5093003;28;20005;-64
2022/09/10 00:28:40;;;;;;;;;;;;;;;16.58;63.08;95365.56;5093225;28;20531;-63
2022/09/10 00:31:05;;;;;;;;;;;;;;;16.54;63.14;95362.78;5073872;28;20044;-63
2022/09/10 00:33:31;;;;;;;;;;;;;;;16.49;63.40;95368.38;5092616;28;20013;-63
2022/09/10 00:35:59;;;;;;;;;;;;;;;16.50;63.40;95367.25;5074939;28;20104;-63
2022/09/10 00:38:28;;;;;;;;;;;;;;;16.52;63.70;95362.31;5073349;28;20013;-63
2022/09/10 00:41:00;;;;;;;;;;;;;;;16.54;63.15;95362.78;5092699;28;20322;-63
2022/09/10 00:43:25;;;;;;;;;;;;;;;16.52;63.30;95362.31;5090530;28;20117;-63
2022/09/10 00:45:53;;;;;;;;;;;;;;;16.51;63.44;95355.38;5092751;28;20410;-63
2022/09/10 00:48:26;;;;;;;;;;;;;;;16.47;63.74;95357.19;5074505;28;20009;-64
2022/09/10 00:50:53;;;;;;;;;;;;;;;16.49;63.47;95346.13;5074353;28;20023;-63
2022/09/10 00:53:22;;;;;;;;;;;;;;;16.51;63.44;95347.34;5073344;28;20020;-64
2022/09/10 00:55:49;;;;;;;;;;;;;;;16.48;63.83;95334.59;5092792;28;20495;-63
2022/09/10 00:58:17;;;;;;;;;;;;;;;16.45;63.83;95335.25;5092406;28;20013;-63
2022/09/10 01:00:42;;;;;;;;;;;;;;;16.49;63.86;95341.53;5074235;28;20103;-63
2022/09/10 01:03:10;;;;;;;;;;;;;;;16.48;63.98;95334.59;5091242;28;20099;-63
2022/09/10 01:05:35;;;;;;;;;;;;;;;16.50;63.84;95332.34;5092452;28;20007;-63
2022/09/10 01:08:00;;;;;;;;;;;;;;;16.53;63.80;95331.69;5090950;28;20035;-63
2022/09/10 01:10:27;;;;;;;;;;;;;;;16.56;63.97;95328.31;5092236;28;20013;-63
2022/09/10 01:13:05;;;;;;;;;;;;;;;16.70;63.64;95319.13;5091746;28;20453;-63
2022/09/10 01:15:45;;;;;;;;;;;;;;;16.78;63.41;95334.34;5091901;28;20020;-63
2022/09/10 01:18:22;;;;;;;;;;;;;;;16.86;63.50;95336.16;5073943;28;20192;-63
2022/09/10 01:20:55;;;;;;;;;;;;;;;17.01;63.16;95335.44;5092184;28;20372;-64
2022/09/10 01:23:20;;;;;;;;;;;;;;;17.25;62.95;95333.78;5089583;28;20013;-63
2022/09/10 01:26:02;;;;;;;;;;;;;;;17.42;62.45;95333.53;5073803;28;20016;-63
2022/09/10 01:28:35;;;;;;;;;;;;;;;17.53;61.11;95328.44;5074048;28;20047;-64
2022/09/10 01:31:03;;;;;;;;;;;;;;;17.71;61.46;95331.59;5091877;28;20009;-63
2022/09/10 01:33:36;;;;;;;;;;;;;;;17.88;61.10;95328.63;5090566;28;20020;-63
2022/09/10 01:36:08;;;;;;;;;;;;;;;17.95;60.46;95318.03;5069648;28;20117;-64
2022/09/10 01:38:35;;;;;;;;;;;;;;;18.07;60.29;95312.56;5083851;28;20024;-63
2022/09/10 01:41:01;;;;;;;;;;;;;;;18.16;60.05;95309.69;5091706;28;20013;-64
2022/09/10 01:43:26;;;;;;;;;;;;;;;18.25;59.67;95304.13;5072890;28;20017;-63
2022/09/10 01:45:57;;;;;;;;;;;;;;;18.32;59.27;95310.47;5090297;28;20133;-63
2022/09/10 01:48:43;;;;;;;;;;;;;;;18.38;59.38;95302.91;5091800;28;20353;-63
2022/09/10 01:51:20;;;;;;;;;;;;;;;18.43;59.24;95300.75;5040091;28;20024;-63
2022/09/10 01:53:58;;;;;;;;;;;;;;;18.38;58.46;95301.00;5072518;28;20009;-63
2022/09/10 01:56:42;;;;;;;;;;;;;;;18.47;58.75;95303.50;5089736;28;20009;-63
2022/09/10 01:59:25;;;;;;;;;;;;;;;18.49;58.50;95301.25;5091457;28;20103;-63
2022/09/10 02:02:00;;;;;;;;;;;;;;;18.43;58.53;95300.75;5091307;28;20032;-64
2022/09/10 02:04:26;;;;;;;;;;;;;;;18.38;58.76;95305.63;5090040;28;20081;-64
2022/09/10 02:06:52;;;;;;;;;;;;;;;18.41;58.50;95299.50;5091054;28;20489;-64
2022/09/10 02:09:17;;;;;;;;;;;;;;;18.26;58.75;95300.31;5089857;28;20008;-64
2022/09/10 02:11:47;;;;;;;;;;;;;;;18.05;59.00;95295.97;5090920;28;20551;-64
2022/09/10 02:14:14;;;;;;;;;;;;;;;17.89;59.44;95298.66;5089609;28;20045;-63
2022/09/10 02:16:41;;;;;;;;;;;;;;;17.78;59.75;95299.53;5090902;28;20044;-64
2022/09/10 02:19:07;;;;;;;;;;;;;;;17.66;60.50;95295.75;5090051;28;20009;-64
2022/09/10 02:21:34;;;;;;;;;;;;;;;17.67;60.65;95296.53;5072511;28;20016;-64
2022/09/10 02:24:04;;;;;;;;;;;;;;;17.57;60.71;95289.75;5071335;28;20074;-64
2022/09/10 02:26:30;;;;;;;;;;;;;;;17.63;60.44;95295.66;5073137;28;20009;-64
2022/09/10 02:28:55;;;;;;;;;;;;;;;17.58;60.47;95294.00;5090787;28;20001;-64
2022/09/10 02:31:21;;;;;;;;;;;;;;;17.48;60.27;95297.19;5090664;28;20779;-64
2022/09/10 02:33:46;;;;;;;;;;;;;;;17.38;60.68;95303.06;5089655;28;20429;-63
2022/09/10 02:36:11;;;;;;;;;;;;;;;17.28;61.04;95307.00;5089879;28;20638;-64
2022/09/10 02:38:37;;;;;;;;;;;;;;;17.21;60.96;95298.00;5071558;28;20064;-63
2022/09/10 02:41:02;;;;;;;;;;;;;;;17.15;61.18;95298.22;5090464;28;20041;-63
2022/09/10 02:43:28;;;;;;;;;;;;;;;17.07;61.42;95301.81;5090226;28;20017;-64
2022/09/10 02:45:55;;;;;;;;;;;;;;;16.99;61.59;95301.97;5088904;28;20013;-63
2022/09/10 02:48:21;;;;;;;;;;;;;;;16.93;61.95;95300.63;5090431;28;20062;-63
2022/09/10 02:50:46;;;;;;;;;;;;;;;16.87;62.29;95295.50;5072209;28;20013;-63
2022/09/10 02:53:12;;;;;;;;;;;;;;;16.83;62.19;95291.91;5089988;28;20393;-63
2022/09/10 02:55:37;;;;;;;;;;;;;;;16.80;62.32;95289.16;5089027;28;20020;-63
2022/09/10 02:58:02;;;;;;;;;;;;;;;16.39;62.49;95242.66;5090236;28;20092;-63
2022/09/10 03:00:28;;;;;;;;;;;;;;;16.73;62.78;95283.56;5090167;28;20012;-63
2022/09/10 03:02:55;;;;;;;;;;;;;;;16.71;62.89;95280.41;5071733;28;20016;-63
2022/09/10 03:05:20;;;;;;;;;;;;;;;16.69;62.74;95290.72;5071508;28;20017;-63
2022/09/10 03:07:46;;;;;;;;;;;;;;;16.69;62.85;95288.03;5072094;28;20107;-63
2022/09/10 03:10:11;;;;;;;;;;;;;;;16.66;62.88;95284.09;5071194;28;20048;-63
2022/09/10 03:12:38;;;;;;;;;;;;;;;16.74;62.67;95285.16;5071652;28;20476;-64
2022/09/10 03:15:03;;;;;;;;;;;;;;;16.80;62.36;95279.19;5089509;28;20023;-64
2022/09/10 03:17:28;;;;;;;;;;;;;;;16.83;62.49;95272.34;5089321;28;20100;-64
2022/09/10 03:19:54;;;;;;;;;;;;;;;16.81;62.69;95274.59;5072201;28;20009;-64
2022/09/10 03:22:19;;;;;;;;;;;;;;;16.83;62.65;95283.09;5089568;28;20061;-64
2022/09/10 03:24:45;;;;;;;;;;;;;;;16.88;62.70;95282.84;5088504;28;20017;-62
2022/09/10 03:27:12;;;;;;;;;;;;;;;16.93;62.56;95276.44;5090012;28;20049;-62
2022/09/10 03:29:38;;;;;;;;;;;;;;;17.01;62.22;95288.97;5089996;28;20020;-63
2022/09/10 03:32:03;;;;;;;;;;;;;;;17.11;62.16;95293.88;5089482;28;20009;-63
2022/09/10 03:34:28;;;;;;;;;;;;;;;17.21;61.58;95295.31;5071246;28;20008;-63
2022/09/10 03:36:53;;;;;;;;;;;;;;;17.33;61.25;95284.47;5089939;28;20477;-64
2022/09/10 03:39:19;;;;;;;;;;;;;;;17.43;60.76;95292.06;5088566;28;20020;-64
2022/09/10 03:41:44;;;;;;;;;;;;;;;17.51;60.61;95293.03;5071723;28;20092;-64
2022/09/10 03:44:10;;;;;;;;;;;;;;;17.53;60.31;95294.25;5089267;28;20158;-63
2022/09/10 03:46:36;;;;;;;;;;;;;;;17.57;59.84;95291.66;5088840;28;20021;-63
2022/09/10 03:49:02;;;;;;;;;;;;;;;17.60;59.68;95296.34;5092859;28;20009;-63
2022/09/10 03:51:28;;;;;;;;;;;;;;;17.66;59.81;95295.75;5093780;28;20005;-63
2022/09/10 03:53:53;;;;;;;;;;;;;;;17.68;59.44;95293.50;5093276;28;20005;-63
2022/09/10 03:56:19;;;;;;;;;;;;;;;17.71;59.56;95288.53;5092362;28;20531;-63
2022/09/10 03:58:45;;;;;;;;;;;;;;;17.80;59.41;95295.34;5093618;28;20004;-63
2022/09/10 04:01:10;;;;;;;;;;;;;;;17.89;59.08;95289.81;5093517;28;20088;-63
2022/09/10 04:03:36;;;;;;;;;;;;;;;17.97;58.87;95285.41;5093083;28;20468;-63
2022/09/10 04:06:01;;;;;;;;;;;;;;;18.02;58.72;95285.91;5092461;28;20013;-64
2022/09/10 04:08:26;;;;;;;;;;;;;;;18.00;58.30;95282.78;5075618;28;20009;-65
2022/09/10 04:10:51;;;;;;;;;;;;;;;18.01;58.49;95288.94;5071115;28;20017;-64
2022/09/10 04:13:17;;;;;;;;;;;;;;;18.01;58.28;95291.63;5071270;28;20020;-64
2022/09/10 04:15:46;;;;;;;;;;;;;;;17.97;58.43;95298.84;5071421;28;20108;-66
2022/09/10 04:18:11;;;;;;;;;;;;;;;18.01;58.52;95288.94;5071223;28;20041;-64
2022/09/10 04:20:37;;;;;;;;;;;;;;;18.02;58.49;95293.22;5093233;28;20041;-64
2022/09/10 04:23:02;;;;;;;;;;;;;;;18.13;58.30;95288.88;5074680;28;20063;-64
2022/09/10 04:25:27;;;;;;;;;;;;;;;18.25;58.24;95282.59;5074201;28;20049;-64
2022/09/10 04:27:53;;;;;;;;;;;;;;;18.36;57.75;95289.78;5074894;28;20533;-64
2022/09/10 04:30:18;;;;;;;;;;;;;;;18.40;57.70;95290.66;5092970;28;20005;-64
2022/09/10 04:32:44;;;;;;;;;;;;;;;18.52;57.35;95280.91;5092585;28;20005;-64
2022/09/10 04:35:09;;;;;;;;;;;;;;;18.61;57.12;95286.88;5092252;28;20012;-64
2022/09/10 04:37:34;;;;;;;;;;;;;;;18.70;57.05;95287.50;5073934;28;20019;-64
2022/09/10 04:39:59;;;;;;;;;;;;;;;18.76;56.67;95293.41;5092141;28;20145;-66
2022/09/10 04:42:25;;;;;;;;;;;;;;;18.84;56.14;95287.81;5091004;28;20009;-64
2022/09/10 04:44:50;;;;;;;;;;;;;;;18.91;56.09;95287.19;5074556;28;20017;-64
2022/09/10 04:47:16;;;;;;;;;;;;;;;18.97;56.12;95285.75;5091776;28;20004;-64
2022/09/10 04:49:42;;;;;;;;;;;;;;;18.98;55.98;95290.00;5073938;28;20013;-66
2022/09/10 04:52:09;;;;;;;;;;;;;;;19.00;55.90;95289.69;5073995;28;20009;-63
2022/09/10 04:54:36;;;;;;;;;;;;;;;19.02;55.71;95285.47;5092565;28;20013;-64
2022/09/10 04:57:01;;;;;;;;;;;;;;;19.06;55.58;95293.66;5091063;28;20522;-64
2022/09/10 04:59:26;;;;;;;;;;;;;;;19.09;55.58;95290.22;5091177;28;20040;-63
2022/09/10 05:01:52;;;;;;;;;;;;;;;19.11;55.40;95290.66;5092524;28;20423;-64
2022/09/10 05:04:17;;;;;;;;;;;;;;;19.06;55.23;95288.25;5091321;28;20013;-63
2022/09/10 05:06:43;;;;;;;;;;;;;;;19.09;55.39;95292.91;5092327;28;20005;-63
2022/09/10 05:09:08;;;;;;;;;;;;;;;19.15;55.28;95297.69;5092317;28;20477;-63
2022/09/10 05:11:33;;;;;;;;;;;;;;;19.21;55.27;95295.50;5091252;28;20013;-63
2022/09/10 05:13:59;;;;;;;;;;;;;;;19.28;54.88;95302.94;5091731;28;20496;-63
2022/09/10 05:16:24;;;;;;;;;;;;;;;19.30;54.94;95293.38;5092062;28;20025;-62
2022/09/10 05:18:49;;;;;;;;;;;;;;;19.35;54.69;95292.31;5092110;28;20075;-63
2022/09/10 05:21:17;;;;;;;;;;;;;;;19.46;54.31;95296.75;5091026;28;20009;-63
2022/09/10 05:23:42;;;;;;;;;;;;;;;19.53;54.36;95298.81;5091542;28;20430;-63
2022/09/10 05:26:08;;;;;;;;;;;;;;;19.58;54.14;95301.22;5072943;28;20100;-65
2022/09/10 05:28:34;;;;;;;;;;;;;;;19.63;53.93;95300.16;5092041;28;20009;-63
2022/09/10 05:30:59;;;;;;;;;;;;;;;19.65;53.84;95303.28;5091987;28;20009;-63
2022/09/10 05:33:24;;;;;;;;;;;;;;;19.72;53.50;95311.53;5090452;28;20005;-63
2022/09/10 05:35:50;;;;;;;;;;;;;;;19.78;53.63;95309.31;5091884;28;20009;-63
2022/09/10 05:38:15;;;;;;;;;;;;;;;19.87;53.16;95317.97;5091502;28;20445;-63
2022/09/10 05:40:41;;;;;;;;;;;;;;;19.87;53.13;95317.97;5091542;28;20109;-64
2022/09/10 05:43:06;;;;;;;;;;;;;;;19.93;52.46;95314.59;5090197;28;20009;-63
2022/09/10 05:45:32;;;;;;;;;;;;;;;19.91;52.39;95316.91;5091654;28;20021;-63
2022/09/10 05:47:58;;;;;;;;;;;;;;;19.67;52.67;95314.53;5089967;28;20092;-63
2022/09/10 05:50:24;;;;;;;;;;;;;;;19.85;52.67;95322.94;5089936;28;20124;-63
2022/09/10 05:52:49;;;;;;;;;;;;;;;19.65;52.46;95320.25;5088580;28;20009;-63
2022/09/10 05:55:14;;;;;;;;;;;;;;;19.51;53.09;95322.69;5089845;28;20031;-63
2022/09/10 05:57:40;;;;;;;;;;;;;;;19.25;54.12;95322.53;5089037;28;20064;-63
2022/09/10 06:00:07;;;;;;;;;;;;;;;19.07;54.11;95320.25;5089538;28;20105;-63
2022/09/10 06:02:33;;;;;;;;;;;;;;;19.42;53.63;95325.59;5089296;28;20661;-64
2022/09/10 06:04:59;;;;;;;;;;;;;;;19.32;53.51;95326.16;5090091;28;20111;-63
2022/09/10 06:07:26;;;;;;;;;;;;;;;19.42;53.91;95332.91;5091123;28;20481;-63
2022/09/10 06:09:51;;;;;;;;;;;;;;;19.31;54.28;95346.16;5090751;28;20015;-64
2022/09/10 06:12:16;;;;;;;;;;;;;;;18.71;56.19;95359.13;5089046;28;20470;-63
2022/09/10 06:14:42;;;;;;;;;;;;;;;17.04;61.69;95356.25;5091000;28;20019;-63
2022/09/10 06:17:07;;;;;;;;;;;;;;;17.33;62.13;95365.91;5091189;28;20401;-64
2022/09/10 06:19:32;;;;;;;;;;;;;;;15.96;67.17;95378.13;5091016;28;20497;-63
2022/09/10 06:21:57;;;;;;;;;;;;;;;15.80;69.32;95382.56;5089786;28;20370;-63
2022/09/10 06:24:24;;;;;;;;;;;;;;;15.90;69.38;95384.84;5090460;28;20013;-63
2022/09/10 06:26:49;;;;;;;;;;;;;;;16.68;67.49;95378.53;5090226;28;20371;-63
2022/09/10 06:29:17;;;;;;;;;;;;;;;17.04;67.07;95379.66;5090551;28;20007;-62
2022/09/10 06:31:42;;;;;;;;;;;;;;;16.82;67.75;95376.31;5090841;28;20013;-62
2022/09/10 06:34:08;;;;;;;;;;;;;;;16.79;68.36;95387.00;5089055;28;20074;-63
2022/09/10 06:36:33;;;;;;;;;;;;;;;17.10;67.64;95386.38;5090660;28;20480;-63
2022/09/10 06:39:00;;;;;;;;;;;;;;;17.00;68.45;95392.22;5090310;28;20456;-64
2022/09/10 06:41:26;;;;;;;;;;;;;;;17.19;68.50;95391.59;5090367;28;20007;-63
2022/09/10 06:43:51;;;;;;;;;;;;;;;17.00;68.86;95395.69;5088935;28;20705;-63
2022/09/10 06:46:17;;;;;;;;;;;;;;;16.95;69.06;95384.38;5090196;28;20058;-66
2022/09/10 06:48:44;;;;;;;;;;;;;;;16.96;68.17;95383.25;5090309;28;20016;-65
2022/09/10 06:51:11;;;;;;;;;;;;;;;17.19;69.15;95388.91;5088700;28;20051;-66
2022/09/10 06:53:37;;;;;;;;;;;;;;;17.70;69.21;95387.28;5089658;28;20005;-66
2022/09/10 06:56:04;;;;;;;;;;;;;;;18.04;69.07;95385.94;5090082;28;20428;-65
2022/09/10 06:58:31;;;;;;;;;;;;;;;18.33;68.75;95378.59;5089161;28;20013;-66
2022/09/10 07:00:56;;;;;;;;;;;;;;;18.60;68.25;95379.63;5089967;28;20130;-64
2022/09/10 07:03:22;;;;;;;;;;;;;;;18.87;68.28;95384.13;5088944;28;20092;-65
2022/09/10 07:05:47;;;;;;;;;;;;;;;19.13;68.03;95369.28;5089532;28;20036;-66
2022/09/10 07:08:16;;;;;;;;;;;;;;;19.35;66.94;95367.81;5089676;28;20009;-64
2022/09/10 07:10:43;;;;;;;;;;;;;;;19.57;66.29;95369.03;5090120;28;20584;-64
2022/09/10 07:13:08;;;;;;;;;;;;;;;19.77;65.81;95369.84;5087925;28;20009;-64
2022/09/10 07:15:34;;;;;;;;;;;;;;;19.95;64.92;95376.34;5089945;28;20017;-65
2022/09/10 07:17:59;;;;;;;;;;;;;;;20.03;64.26;95378.03;5089994;28;20527;-65
2022/09/10 07:20:27;;;;;;;;;;;;;;;20.17;63.07;95383.69;5089806;28;20461;-64
2022/09/10 07:22:54;;;;;;;;;;;;;;;20.30;62.04;95389.69;5088461;28;20028;-65
2022/09/10 07:25:19;;;;;;;;;;;;;;;20.38;63.29;95387.91;5089974;28;20013;-65
2022/09/10 07:27:45;;;;;;;;;;;;;;;20.46;62.73;95381.47;5088957;28;20501;-65
2022/09/10 07:30:10;;;;;;;;;;;;;;;20.63;62.87;95388.34;5089601;28;20062;-65
2022/09/10 07:32:36;;;;;;;;;;;;;;;20.70;61.00;95391.16;5071195;28;20009;-65
2022/09/10 07:35:01;;;;;;;;;;;;;;;20.85;60.54;95381.34;5089035;28;20013;-65
2022/09/10 07:37:26;;;;;;;;;;;;;;;20.95;59.28;95389.59;5089723;28;20051;-65
2022/09/10 07:39:51;;;;;;;;;;;;;;;21.17;59.19;95389.91;5089646;28;20457;-66
2022/09/10 07:42:17;;;;;;;;;;;;;;;21.40;58.58;95389.88;5089086;28;20005;-64
2022/09/10 07:44:42;;;;;;;;;;;;;;;21.48;57.11;95377.97;5088758;28;20027;-64
2022/09/10 07:47:07;;;;;;;;;;;;;;;21.50;57.08;95391.94;5088826;28;20013;-64
2022/09/10 07:49:33;;;;;;;;;;;;;;;21.48;56.42;95383.38;5089878;28;20383;-64
2022/09/10 07:51:58;;;;;;;;;;;;;;;21.52;56.68;95387.69;5089443;28;20005;-64
2022/09/10 07:54:23;;;;;;;;;;;;;;;21.60;55.43;95385.88;5089213;28;20571;-64
2022/09/10 07:56:49;;;;;;;;;;;;;;;21.71;54.60;95392.19;5088741;28;20019;-64
2022/09/10 07:59:14;;;;;;;;;;;;;;;21.82;54.97;95396.94;5087904;28;20036;-64
2022/09/10 08:01:39;;;;;;;;;;;;;;;21.84;55.03;95391.94;5089576;28;20008;-64
2022/09/10 08:04:06;;;;;;;;;;;;;;;21.74;54.63;95404.19;5088974;28;20142;-64
2022/09/10 08:06:31;;;;;;;;;;;;;;;21.69;54.64;95397.16;5089531;28;20005;-64
2022/09/10 08:08:56;;;;;;;;;;;;;;;21.75;55.35;95405.75;5088473;28;20541;-64
2022/09/10 08:11:22;;;;;;;;;;;;;;;21.75;53.84;95403.84;5089658;28;20493;-64
2022/09/10 08:13:48;;;;;;;;;;;;;;;21.76;54.58;95407.31;5087149;28;20016;-64
2022/09/10 08:16:15;;;;;;;;;;;;;;;21.85;55.18;95417.84;5088887;28;20064;-64
2022/09/10 08:18:42;;;;;;;;;;;;;;;22.04;54.49;95413.06;5089393;28;20441;-65
2022/09/10 08:21:07;;;;;;;;;;;;;;;22.26;53.73;95413.28;5089304;28;20009;-63
2022/09/10 08:23:33;;;;;;;;;;;;;;;22.49;53.22;95419.34;5087997;28;20257;-63
2022/09/10 08:26:00;;;;;;;;;;;;;;;22.63;52.93;95407.84;5089030;28;20354;-64
2022/09/10 08:28:26;;;;;;;;;;;;;;;22.67;52.62;95414.06;5089027;28;20015;-63
2022/09/10 08:31:00;;;;;;;;;;;;;;;22.75;51.85;95415.69;5088092;28;20409;-65
2022/09/10 08:33:26;;;;;;;;;;;;;;;23.12;51.58;95414.81;5089020;28;20378;-65
2022/09/10 08:35:56;;;;;;;;;;;;;;;23.57;50.94;95416.25;5092104;28;20020;-65
2022/09/10 08:38:21;;;;;;;;;;;;;;;24.21;50.33;95413.03;5070279;28;20067;-64
2022/09/10 08:40:47;;;;;;;;;;;;;;;24.75;49.03;95413.09;5072268;28;20508;-65
2022/09/10 08:43:14;;;;;;;;;;;;;;;25.20;47.15;95418.94;5071957;28;20054;-65
2022/09/10 08:45:40;;;;;;;;;;;;;;;25.53;46.28;95417.69;5086142;28;20017;-65
2022/09/10 08:48:19;;;;;;;;;;;;;;;25.76;45.79;95415.31;5092249;28;20005;-64
2022/09/10 08:50:49;;;;;;;;;;;;;;;25.92;44.43;95414.88;5092579;28;20110;-64
2022/09/10 08:53:17;;;;;;;;;;;;;;;25.94;45.06;95415.22;5091908;28;20039;-65
2022/09/10 08:55:43;;;;;;;;;;;;;;;25.34;44.54;95429.81;5091486;28;20511;-64
2022/09/10 08:58:15;;;;;;;;;;;;;;;25.27;45.54;95427.88;5092049;28;20005;-63
2022/09/10 09:00:43;;;;;;;;;;;;;;;25.04;45.29;95428.25;5091079;28;20012;-64
2022/09/10 09:03:13;;;;;;;;;;;;;;;24.95;46.38;95430.59;5091643;28;20013;-62
2022/09/10 09:05:43;;;;;;;;;;;;;;;24.13;47.45;95425.03;5091990;28;20020;-62
2022/09/10 09:08:10;;;;;;;;;;;;;;;24.58;47.32;95420.09;5090915;28;20603;-63
2022/09/10 09:10:38;;;;;;;;;;;;;;;24.15;47.45;95428.13;5091994;28;20007;-63
2022/09/10 09:13:18;;;;;;;;;;;;;;;24.24;47.57;95428.53;5091614;28;20099;-63
2022/09/10 09:15:48;;;;;;;;;;;;;;;23.59;48.19;95429.44;5090850;28;20020;-63
2022/09/10 09:18:18;;;;;;;;;;;;;;;23.40;49.14;95437.88;5091771;28;20075;-64
2022/09/10 09:20:45;;;;;;;;;;;;;;;23.94;48.50;95437.00;5073899;28;20458;-65
2022/09/10 09:23:13;;;;;;;;;;;;;;;24.54;47.05;95433.69;5091418;28;20496;-63
2022/09/10 09:25:46;;;;;;;;;;;;;;;25.05;46.99;95429.81;5090978;28;20039;-64
2022/09/10 09:28:16;;;;;;;;;;;;;;;25.30;46.81;95423.59;5091531;28;20033;-64
2022/09/10 09:30:48;;;;;;;;;;;;;;;25.46;45.80;95426.66;5090847;28;20417;-64
2022/09/10 09:33:15;;;;;;;;;;;;;;;25.57;45.14;95415.75;5091266;28;20035;-65
2022/09/10 09:35:59;;;;;;;;;;;;;;;24.06;46.21;95425.03;5091405;28;20107;-65
2022/09/10 09:38:26;;;;;;;;;;;;;;;23.59;48.67;95422.06;5090475;28;20036;-65
2022/09/10 09:40:55;;;;;;;;;;;;;;;23.88;48.75;95421.44;5073392;28;20384;-64
2022/09/10 09:43:30;;;;;;;;;;;;;;;22.08;50.01;95429.34;5090915;28;20392;-65
2022/09/10 09:45:56;;;;;;;;;;;;;;;19.81;56.75;95430.03;5090385;28;20545;-65
2022/09/10 09:48:23;;;;;;;;;;;;;;;20.49;54.22;95426.72;5091346;28;20005;-63
2022/09/10 09:50:50;;;;;;;;;;;;;;;20.98;53.69;95420.53;5091298;28;20445;-64
2022/09/10 09:53:18;;;;;;;;;;;;;;;20.99;53.58;95414.00;5090907;28;20004;-65
2022/09/10 09:55:46;;;;;;;;;;;;;;;20.69;52.99;95425.50;5090602;28;20023;-64
2022/09/10 09:58:20;;;;;;;;;;;;;;;20.62;59.56;95425.38;5090509;28;20548;-64
2022/09/10 10:00:48;;;;;;;;;;;;;;;19.05;62.24;95443.84;5090245;28;20012;-63
2022/09/10 10:03:23;;;;;;;;;;;;;;;18.68;65.67;95446.03;5072675;28;20009;-64
2022/09/10 10:05:48;;;;;;;;;;;;;;;17.96;68.72;95438.00;5091127;28;20073;-63
2022/09/10 10:08:27;;;;;;;;;;;;;;;17.23;73.33;95435.50;5071959;28;20419;-63
2022/09/10 10:10:52;;;;;;;;;;;;;;;17.92;71.51;95426.38;5091120;28;20012;-65
2022/09/10 10:13:21;;;;;;;;;;;;;;;17.61;71.34;95427.03;5090517;28;20399;-66
2022/09/10 10:15:47;;;;;;;;;;;;;;;18.48;68.93;95426.28;5089090;28;20013;-66
2022/09/10 10:18:21;;;;;;;;;;;;;;;18.23;68.28;95422.19;5090708;28;20005;-66
2022/09/10 10:21:09;;;;;;;;;;;;;;;17.86;69.25;95425.03;5090780;28;20008;-65
2022/09/10 10:23:35;;;;;;;;;;;;;;;18.19;67.77;95424.78;5089906;28;20009;-64
2022/09/10 10:26:21;;;;;;;;;;;;;;;19.04;68.86;95425.31;5089423;28;20017;-65
2022/09/10 10:28:47;;;;;;;;;;;;;;;20.43;69.24;95415.41;5091501;28;20013;-65
2022/09/10 10:31:13;;;;;;;;;;;;;;;20.67;65.92;95406.16;5089785;28;20013;-65
2022/09/10 10:33:50;;;;;;;;;;;;;;;21.34;63.71;95410.25;5071697;28;20523;-64
2022/09/10 10:36:39;;;;;;;;;;;;;;;21.31;61.33;95400.97;5090558;28;20453;-65
2022/09/10 10:39:23;;;;;;;;;;;;;;;20.58;62.17;95404.88;5089462;28;20013;-66
2022/09/10 10:42:04;;;;;;;;;;;;;;;20.38;63.76;95404.13;5072158;28;20104;-67
2022/09/10 10:44:51;;;;;;;;;;;;;;;20.25;62.91;95403.50;5090028;28;20020;-66
2022/09/10 10:47:38;;;;;;;;;;;;;;;20.95;63.52;95394.25;5089299;28;20012;-68
2022/09/10 10:50:24;;;;;;;;;;;;;;;20.05;63.91;95399.28;5089886;28;20414;-67
2022/09/10 10:53:06;;;;;;;;;;;;;;;20.70;61.84;95393.84;5089779;28;20009;-66
2022/09/10 10:55:44;;;;;;;;;;;;;;;21.31;63.14;95387.44;5090038;28;20052;-67
2022/09/10 10:58:09;;;;;;;;;;;;;;;21.26;59.52;95385.78;5088452;28;20012;-66
2022/09/10 11:00:46;;;;;;;;;;;;;;;21.12;60.56;95388.28;5090123;28;20008;-67
2022/09/10 11:03:21;;;;;;;;;;;;;;;21.11;58.21;95391.38;5070686;28;20107;-67
2022/09/10 11:05:50;;;;;;;;;;;;;;;21.33;58.13;95390.53;5089684;28;20012;-67
2022/09/10 11:08:15;;;;;;;;;;;;;;;21.22;59.95;95393.06;5089688;28;20012;-67
2022/09/10 11:10:42;;;;;;;;;;;;;;;20.23;59.85;95390.34;5088972;28;20013;-66
2022/09/10 11:13:15;;;;;;;;;;;;;;;21.33;57.82;95387.06;5089284;28;20005;-67
2022/09/10 11:15:48;;;;;;;;;;;;;;;21.12;55.79;95392.94;5089675;28;20013;-67
2022/09/10 11:18:16;;;;;;;;;;;;;;;21.65;55.83;95382.84;5087895;28;20013;-67
2022/09/10 11:20:45;;;;;;;;;;;;;;;20.40;55.96;95385.63;5086796;28;20007;-66
2022/09/10 11:23:13;;;;;;;;;;;;;;;20.40;55.31;95385.63;5088927;28;20052;-66
2022/09/10 11:25:54;;;;;;;;;;;;;;;19.60;57.19;95395.31;5088302;28;20055;-66
2022/09/10 11:28:42;;;;;;;;;;;;;;;21.06;55.35;95389.75;5089337;28;20011;-66
2022/09/10 11:31:11;;;;;;;;;;;;;;;21.75;53.94;95392.22;5089691;28;20009;-66
2022/09/10 11:33:55;;;;;;;;;;;;;;;20.33;54.47;95394.38;5088187;28;20099;-66
2022/09/10 11:36:24;;;;;;;;;;;;;;;21.51;52.08;95388.84;5089635;28;20012;-66
2022/09/10 11:38:50;;;;;;;;;;;;;;;21.82;51.02;95376.06;5089555;28;20008;-65
2022/09/10 11:41:22;;;;;;;;;;;;;;;21.60;52.15;95377.75;5089583;28;20005;-67
2022/09/10 11:43:47;;;;;;;;;;;;;;;21.62;51.21;95377.38;5088218;28;20108;-67
2022/09/10 11:46:25;;;;;;;;;;;;;;;21.69;52.10;95378.22;5089665;28;20362;-67
2022/09/10 11:49:09;;;;;;;;;;;;;;;23.23;49.80;95369.53;5086807;28;20020;-67
2022/09/10 11:51:38;;;;;;;;;;;;;;;22.51;48.98;95376.34;5071463;28;20012;-65
2022/09/10 11:54:07;;;;;;;;;;;;;;;20.84;52.03;95380.56;5088051;28;20009;-67
2022/09/10 11:56:52;;;;;;;;;;;;;;;21.13;52.15;95379.03;5089533;28;20013;-66
2022/09/10 11:59:28;;;;;;;;;;;;;;;22.23;49.22;95376.91;5089372;28;20011;-66
2022/09/10 12:01:58;;;;;;;;;;;;;;;20.57;51.07;95373.56;5089743;28;20005;-66
2022/09/10 12:04:41;;;;;;;;;;;;;;;21.42;49.10;95379.44;5088046;28;20017;-67
2022/09/10 12:07:17;;;;;;;;;;;;;;;20.72;49.67;95370.72;5089455;28;20497;-66
2022/09/10 12:09:48;;;;;;;;;;;;;;;19.72;51.78;95368.19;5090148;28;20023;-66
2022/09/10 12:12:39;;;;;;;;;;;;;;;20.32;51.17;95371.22;5092973;28;20013;-66
2022/09/10 12:15:12;;;;;;;;;;;;;;;20.96;51.63;95369.53;5088895;28;20028;-66
2022/09/10 12:17:40;;;;;;;;;;;;;;;21.76;50.63;95372.91;5092207;28;20481;-66
2022/09/10 12:20:06;;;;;;;;;;;;;;;20.44;51.12;95383.75;5091590;28;20384;-67
2022/09/10 12:22:36;;;;;;;;;;;;;;;21.00;51.04;95364.94;5092082;28;20096;-66
2022/09/10 12:25:03;;;;;;;;;;;;;;;20.72;51.49;95365.31;5093038;28;20036;-66
2022/09/10 12:27:46;;;;;;;;;;;;;;;21.06;50.80;95365.41;5093156;28;20155;-65
2022/09/10 12:30:23;;;;;;;;;;;;;;;21.29;50.03;95366.13;5092005;28;20473;-67
2022/09/10 12:32:49;;;;;;;;;;;;;;;20.92;51.28;95365.22;5091517;28;20009;-67
2022/09/10 12:35:30;;;;;;;;;;;;;;;22.28;48.67;95364.94;5093062;28;20476;-68
2022/09/10 12:38:13;;;;;;;;;;;;;;;21.63;48.08;95359.97;5093009;28;20094;-67
2022/09/10 12:40:43;;;;;;;;;;;;;;;21.24;49.12;95363.75;5092858;28;20001;-66
2022/09/10 12:43:27;;;;;;;;;;;;;;;22.09;46.63;95363.19;5091245;28;20039;-66
2022/09/10 12:46:04;;;;;;;;;;;;;;;22.57;46.25;95360.53;5092570;28;20160;-66
2022/09/10 12:48:31;;;;;;;;;;;;;;;23.91;42.73;95352.78;5091478;28;20012;-67
2022/09/10 12:50:59;;;;;;;;;;;;;;;24.59;40.36;95345.50;5092541;28;20369;-68
2022/09/10 12:53:30;;;;;;;;;;;;;;;24.82;39.99;95353.25;5073318;28;20009;-68
2022/09/10 12:56:00;;;;;;;;;;;;;;;24.82;40.83;95345.84;5092018;28;20507;-67